Portada
METAR-TAF:

METAR-TAF

Aeroports :

Indore, Índia

latitud: 22-43N, longitud: 075-48E, altitud: 561 m

Observació

L'informe es va fer fa 2 hores i 18 minuts, a les 18:00 UTC
Vent calma
Temperatura 24°C
Humitat 65%
Pressió 1016 hPa
Visibilitat: 4000 m
calitja

METAR: VAID 161800Z 00000KT 4000 HZ NSC 24/17 Q1016 NOSIG

Hora: 01:48 (20:18 UTC)

Pronòstic

L'informe es va fer fa 6 hores i 18 minuts, a les 14:00 UTC
Pronòstic vàlid del 16 a les 15 UTC al 16 a les 24 UTC
Vent 5 kt del Nord-Est
Visibilitat: 5000 m
Escasses núvols a una alçada de 2500 ft
calitja

TAF: VAID 161400Z 1615/1624 05005KT 5000 HZ FEW025

Observacions i pronòstics meteorològics de més de 4000 aeroports (METAR i TAF).

Les estacions disponibles són els punts grocs i vermells al mapa.

Posi el ratolí al punt desitjat per veure el nom de l'estació.

Feu clic per veure les observacions i els pronòstics meteorològics.

Per canviar el mapa: feu clic els botons verds amb una creu de color negre per apropar; al botó verd amb un guió per allunyar la imatge; o en les fletxes verdes per a mapes adjacents.


METAR-TAF: